createdAt,value
2019-05-06T00:02:19.766Z,100938.27
2019-05-06T00:04:51.425Z,100943.24
2019-05-06T00:07:24.279Z,100940.62
2019-05-06T00:09:56.390Z,100939.48
2019-05-06T00:12:28.524Z,100937.76
2019-05-06T00:15:00.496Z,100934.08
2019-05-06T00:17:34.933Z,100934.11
2019-05-06T00:20:06.055Z,100935.53
2019-05-06T00:22:39.484Z,100932.88
2019-05-06T00:25:16.894Z,100928.95
2019-05-06T00:28:06.281Z,100940.45
2019-05-06T00:30:38.292Z,100933.95
2019-05-06T00:33:10.160Z,100930.15
2019-05-06T00:35:42.096Z,100916.80
2019-05-06T00:38:14.168Z,100933.96
2019-05-06T00:40:46.943Z,100934.16
2019-05-06T00:43:18.937Z,100941.70
2019-05-06T00:45:50.571Z,100932.98
2019-05-06T00:48:24.370Z,100927.38
2019-05-06T00:50:56.129Z,100935.52
2019-05-06T00:53:29.434Z,100925.98
2019-05-06T00:56:04.440Z,100931.67
2019-05-06T00:58:36.314Z,100932.95
2019-05-06T01:01:08.141Z,100935.00
2019-05-06T01:03:39.854Z,100932.28
2019-05-06T01:06:11.525Z,100929.05
2019-05-06T01:08:44.114Z,100927.41
2019-05-06T01:11:16.753Z,100929.80
2019-05-06T01:14:00.332Z,100937.03
2019-05-06T01:16:31.727Z,100934.50
2019-05-06T01:19:04.727Z,100931.82
2019-05-06T01:21:37.052Z,100927.90
2019-05-06T01:24:08.698Z,100934.02
2019-05-06T01:26:40.567Z,100933.72
2019-05-06T01:29:14.382Z,100933.92
2019-05-06T01:31:46.460Z,100933.20
2019-05-06T01:34:18.018Z,100924.73
2019-05-06T01:36:49.406Z,100925.58
2019-05-06T01:39:58.406Z,100925.52
2019-05-06T01:42:34.577Z,100913.36
2019-05-06T01:45:07.697Z,100921.48
2019-05-06T01:47:40.065Z,100918.87
2019-05-06T01:50:11.417Z,100918.97
2019-05-06T01:52:44.285Z,100925.61
2019-05-06T01:55:16.015Z,100925.07
2019-05-06T01:57:48.598Z,100925.07
2019-05-06T02:00:19.681Z,100929.89
2019-05-06T02:02:51.580Z,100931.33
2019-05-06T02:05:24.269Z,100934.99
2019-05-06T02:07:56.470Z,100931.66
2019-05-06T02:10:28.306Z,100930.19
2019-05-06T02:12:59.841Z,100935.23
2019-05-06T02:15:31.387Z,100932.44
2019-05-06T02:18:04.111Z,100924.55
2019-05-06T02:20:38.903Z,100926.95
2019-05-06T02:23:14.903Z,100926.33
2019-05-06T02:25:49.376Z,100925.76
2019-05-06T02:28:21.057Z,100929.04
2019-05-06T02:31:17.471Z,100929.88
2019-05-06T02:34:17.417Z,100933.35
2019-05-06T02:36:57.233Z,100935.23
2019-05-06T02:39:29.211Z,100926.44
2019-05-06T02:42:03.779Z,100930.02
2019-05-06T02:44:34.140Z,100926.34
2019-05-06T02:47:34.301Z,100921.17
2019-05-06T02:50:09.504Z,100917.00
2019-05-06T02:52:43.797Z,100920.41
2019-05-06T02:55:14.145Z,100923.44
2019-05-06T02:57:46.014Z,100921.30
2019-05-06T03:00:19.488Z,100920.84
2019-05-06T03:02:54.138Z,100923.47
2019-05-06T03:05:25.460Z,100920.95
2019-05-06T03:07:57.868Z,100918.39
2019-05-06T03:10:29.545Z,100922.63
2019-05-06T03:13:03.046Z,100923.44
2019-05-06T03:15:35.996Z,100917.43
2019-05-06T03:18:07.859Z,100916.36
2019-05-06T03:20:49.328Z,100921.35
2019-05-06T03:23:23.620Z,100920.34
2019-05-06T03:25:56.226Z,100924.89
2019-05-06T03:28:27.989Z,100924.58
2019-05-06T03:30:59.569Z,100925.11
2019-05-06T03:33:50.701Z,100929.52
2019-05-06T03:36:15.550Z,100932.88
2019-05-06T03:38:38.041Z,100928.44
2019-05-06T03:41:13.647Z,100931.03
2019-05-06T03:43:44.197Z,100927.01
2019-05-06T03:46:53.982Z,100927.06
2019-05-06T03:49:28.902Z,100929.92
2019-05-06T03:52:02.733Z,100925.78
2019-05-06T03:54:34.462Z,100926.95
2019-05-06T03:57:06.320Z,100933.57
2019-05-06T03:59:39.759Z,100931.09
2019-05-06T04:02:13.238Z,100929.33
2019-05-06T04:04:45.311Z,100928.67
2019-05-06T04:07:17.263Z,100928.59
2019-05-06T04:09:49.142Z,100929.95
2019-05-06T04:12:23.331Z,100928.50
2019-05-06T04:14:54.403Z,100935.13
2019-05-06T04:17:37.718Z,100932.59
2019-05-06T04:20:18.886Z,100931.44
2019-05-06T04:22:56.918Z,100936.88
2019-05-06T04:25:47.546Z,100927.38
2019-05-06T04:28:23.808Z,100935.32
2019-05-06T04:30:55.399Z,100933.84
2019-05-06T04:33:28.305Z,100932.19
2019-05-06T04:36:03.523Z,100938.16
2019-05-06T04:38:34.276Z,100937.23
2019-05-06T04:41:06.051Z,100937.42
2019-05-06T04:43:38.624Z,100937.38
2019-05-06T04:46:13.596Z,100934.63
2019-05-06T04:48:43.966Z,100937.81
2019-05-06T04:51:16.185Z,100942.86
2019-05-06T04:53:48.238Z,100949.48
2019-05-06T04:56:19.800Z,100941.13
2019-05-06T04:58:53.892Z,100946.41
2019-05-06T05:01:25.561Z,100942.80
2019-05-06T05:03:57.087Z,100945.02
2019-05-06T05:06:29.061Z,100945.35
2019-05-06T05:09:02.928Z,100939.59
2019-05-06T05:11:49.138Z,100942.83
2019-05-06T05:14:32.792Z,100944.04
2019-05-06T05:17:14.732Z,100944.80
2019-05-06T05:19:46.643Z,100945.60
2019-05-06T05:22:18.404Z,100949.31
2019-05-06T05:24:52.189Z,100951.70
2019-05-06T05:27:23.615Z,100952.55
2019-05-06T05:29:55.809Z,100954.41
2019-05-06T05:32:28.564Z,100955.38
2019-05-06T05:35:02.086Z,100951.48
2019-05-06T05:37:33.541Z,100953.13
2019-05-06T05:40:05.400Z,100962.81
2019-05-06T05:42:52.724Z,100962.95
2019-05-06T05:45:24.777Z,100955.67
2019-05-06T05:47:57.812Z,100958.79
2019-05-06T05:50:35.980Z,100955.67
2019-05-06T05:53:07.324Z,100954.95
2019-05-06T05:55:39.633Z,100954.59
2019-05-06T05:58:12.924Z,100955.08
2019-05-06T06:00:44.435Z,100950.84
2019-05-06T06:03:16.098Z,100958.46
2019-05-06T06:05:48.073Z,100952.59
2019-05-06T06:08:22.134Z,100953.16
2019-05-06T06:11:00.293Z,100949.50
2019-05-06T06:13:32.062Z,100944.47
2019-05-06T06:16:32.835Z,100948.09
2019-05-06T06:19:17.734Z,100943.42
2019-05-06T06:21:57.077Z,100943.92
2019-05-06T06:24:32.227Z,100942.14
2019-05-06T06:27:04.470Z,100939.13
2019-05-06T06:29:36.140Z,100945.52
2019-05-06T06:32:20.181Z,100945.78
2019-05-06T06:35:19.095Z,100944.47
2019-05-06T06:38:05.773Z,100941.61
2019-05-06T06:40:37.455Z,100943.30
2019-05-06T06:43:14.879Z,100943.49
2019-05-06T06:45:46.886Z,100938.73
2019-05-06T06:48:18.565Z,100944.61
2019-05-06T06:50:51.755Z,100948.78
2019-05-06T06:53:23.810Z,100951.05
2019-05-06T06:56:14.707Z,100955.30
2019-05-06T06:59:05.627Z,100954.62
2019-05-06T07:01:43.010Z,100950.39
2019-05-06T07:04:19.882Z,100946.98
2019-05-06T07:06:54.109Z,100943.56
2019-05-06T07:09:25.951Z,100946.32
2019-05-06T07:11:57.310Z,100950.61
2019-05-06T07:14:28.753Z,100950.62
2019-05-06T07:17:02.453Z,100948.78
2019-05-06T07:19:42.145Z,100950.09
2019-05-06T07:22:13.017Z,100951.64
2019-05-06T07:24:44.808Z,100952.39
2019-05-06T07:27:22.681Z,100951.14
2019-05-06T07:29:53.631Z,100947.86
2019-05-06T07:32:25.290Z,100957.78
2019-05-06T07:34:57.150Z,100939.11
2019-05-06T07:37:29.559Z,100949.98
2019-05-06T07:40:03.078Z,100948.03
2019-05-06T07:42:46.083Z,100953.59
2019-05-06T07:45:32.720Z,100952.32
2019-05-06T07:48:09.793Z,100953.98
2019-05-06T07:50:42.588Z,100956.96
2019-05-06T07:53:14.660Z,100953.05
2019-05-06T07:55:46.351Z,100954.41
2019-05-06T07:58:18.054Z,100949.98
2019-05-06T08:00:49.648Z,100955.19
2019-05-06T08:03:22.313Z,100952.75
2019-05-06T08:05:58.377Z,100949.45
2019-05-06T08:08:26.854Z,100946.30
2019-05-06T08:10:58.817Z,100953.83
2019-05-06T08:13:32.241Z,100949.77
2019-05-06T08:16:04.771Z,100946.38
2019-05-06T08:18:36.544Z,100941.16
2019-05-06T08:21:16.427Z,100935.61
2019-05-06T08:23:52.124Z,100936.13
2019-05-06T08:26:23.224Z,100933.23
2019-05-06T08:28:54.728Z,100931.39
2019-05-06T08:31:26.007Z,100928.84
2019-05-06T08:33:58.070Z,100933.48
2019-05-06T08:36:47.740Z,100916.45
2019-05-06T08:39:19.415Z,100929.88
2019-05-06T08:41:52.881Z,100925.88
2019-05-06T08:44:24.985Z,100920.19
2019-05-06T08:46:56.342Z,100931.01
2019-05-06T08:49:29.290Z,100919.06
2019-05-06T08:52:07.716Z,100915.02
2019-05-06T08:54:43.654Z,100924.13
2019-05-06T08:57:15.925Z,100922.09
2019-05-06T08:59:47.410Z,100916.98
2019-05-06T09:02:22.744Z,100912.83
2019-05-06T09:04:54.696Z,100903.86
2019-05-06T09:07:26.553Z,100912.95
2019-05-06T09:09:58.905Z,100918.22
2019-05-06T09:12:30.286Z,100914.95
2019-05-06T09:15:03.529Z,100911.56
2019-05-06T09:17:35.734Z,100904.23
2019-05-06T09:20:07.155Z,100917.49
2019-05-06T09:22:39.060Z,100900.50
2019-05-06T09:25:12.719Z,100902.37
2019-05-06T09:27:59.142Z,100900.98
2019-05-06T09:30:43.263Z,100902.47
2019-05-06T09:33:17.859Z,100905.46
2019-05-06T09:35:49.649Z,100898.33
2019-05-06T09:38:22.839Z,100901.77
2019-05-06T09:40:55.103Z,100886.84
2019-05-06T09:43:26.903Z,100885.05
2019-05-06T09:45:59.041Z,100885.66
2019-05-06T09:48:49.612Z,100892.88
2019-05-06T09:51:22.117Z,100883.42
2019-05-06T09:54:23.615Z,100893.69
2019-05-06T09:57:08.222Z,100887.52
2019-05-06T09:59:39.742Z,100885.35
2019-05-06T10:02:12.545Z,100878.87
2019-05-06T10:04:44.405Z,100887.87
2019-05-06T10:07:15.975Z,100883.99
2019-05-06T10:09:47.620Z,100883.69
2019-05-06T10:12:19.371Z,100884.86
2019-05-06T10:14:53.170Z,100879.27
2019-05-06T10:17:24.652Z,100886.03
2019-05-06T10:19:57.333Z,100883.90
2019-05-06T10:22:29.173Z,100878.55
2019-05-06T10:25:03.606Z,100888.59
2019-05-06T10:27:38.287Z,100876.45
2019-05-06T10:30:12.520Z,100885.08
2019-05-06T10:32:53.422Z,100879.95
2019-05-06T10:35:29.176Z,100887.92
2019-05-06T10:38:05.004Z,100891.77
2019-05-06T10:40:56.214Z,100881.26
2019-05-06T10:43:22.028Z,100885.94
2019-05-06T10:45:54.303Z,100880.05
2019-05-06T10:48:25.920Z,100878.92
2019-05-06T10:51:03.580Z,100890.57
2019-05-06T10:53:36.777Z,100893.14
2019-05-06T10:56:31.987Z,100884.13
2019-05-06T10:59:03.261Z,100884.13
2019-05-06T11:01:42.532Z,100889.51
2019-05-06T11:04:12.963Z,100882.02
2019-05-06T11:06:44.701Z,100869.80
2019-05-06T11:09:16.375Z,100870.13
2019-05-06T11:11:48.577Z,100869.77
2019-05-06T11:14:22.736Z,100864.95
2019-05-06T11:16:54.059Z,100870.14
2019-05-06T11:19:25.021Z,100863.75
2019-05-06T11:21:56.296Z,100858.14
2019-05-06T11:24:27.927Z,100871.26
2019-05-06T11:26:59.799Z,100863.03
2019-05-06T11:29:33.910Z,100853.27
2019-05-06T11:32:17.965Z,100852.23
2019-05-06T11:35:12.414Z,100844.69
2019-05-06T11:38:03.085Z,100848.52
2019-05-06T11:40:35.140Z,100841.19
2019-05-06T11:43:07.237Z,100840.02
2019-05-06T11:45:39.455Z,100841.36
2019-05-06T11:48:14.356Z,100844.69
2019-05-06T11:50:46.989Z,100832.84
2019-05-06T11:53:18.875Z,100834.14
2019-05-06T11:55:54.340Z,100843.42
2019-05-06T11:58:43.383Z,100854.40
2019-05-06T12:01:22.079Z,100854.89
2019-05-06T12:03:53.292Z,100841.14
2019-05-06T12:06:24.957Z,100836.64
2019-05-06T12:08:57.086Z,100839.27
2019-05-06T12:11:29.095Z,100842.16
2019-05-06T12:14:02.392Z,100842.16
2019-05-06T12:16:33.868Z,100839.29
2019-05-06T12:19:05.713Z,100832.80
2019-05-06T12:21:37.008Z,100838.98
2019-05-06T12:24:08.560Z,100841.38
2019-05-06T12:26:42.705Z,100830.16
2019-05-06T12:29:13.986Z,100834.51
2019-05-06T12:31:49.613Z,100835.47
2019-05-06T12:34:20.875Z,100835.90
2019-05-06T12:36:55.577Z,100835.90
2019-05-06T12:39:29.674Z,100827.82
2019-05-06T12:42:25.900Z,100828.81
2019-05-06T12:45:16.416Z,100827.06
2019-05-06T12:47:55.322Z,100824.52
2019-05-06T12:50:27.283Z,100825.47
2019-05-06T12:52:58.779Z,100833.16
2019-05-06T12:55:30.346Z,100824.86
2019-05-06T12:58:02.955Z,100820.72
2019-05-06T13:00:35.617Z,100820.28
2019-05-06T13:03:06.883Z,100823.30
2019-05-06T13:05:39.282Z,100816.87
2019-05-06T13:08:18.784Z,100830.30
2019-05-06T13:10:45.443Z,100823.63
2019-05-06T13:13:17.703Z,100819.66
2019-05-06T13:15:52.603Z,100830.07
2019-05-06T13:18:23.384Z,100826.27
2019-05-06T13:20:55.581Z,100825.55
2019-05-06T13:23:52.075Z,100820.62
2019-05-06T13:26:24.265Z,100819.51
2019-05-06T13:28:59.381Z,100813.86
2019-05-06T13:31:32.656Z,100819.19
2019-05-06T13:34:06.351Z,100811.93
2019-05-06T13:36:37.620Z,100825.66
2019-05-06T13:39:14.384Z,100817.38
2019-05-06T13:41:42.854Z,100818.00
2019-05-06T13:44:18.809Z,100821.36
2019-05-06T13:46:53.618Z,100827.52
2019-05-06T13:49:52.222Z,100819.87
2019-05-06T13:52:30.351Z,100831.31
2019-05-06T13:55:02.734Z,100817.68
2019-05-06T13:57:34.185Z,100820.94
2019-05-06T14:00:06.131Z,100819.55
2019-05-06T14:02:49.790Z,100828.56
2019-05-06T14:05:22.199Z,100807.56
2019-05-06T14:07:53.740Z,100810.42
2019-05-06T14:10:25.345Z,100818.92
2019-05-06T14:12:57.373Z,100814.66
2019-05-06T14:15:28.641Z,100814.66
2019-05-06T14:18:02.420Z,100814.03
2019-05-06T14:20:33.700Z,100811.75
2019-05-06T14:23:05.675Z,100815.88
2019-05-06T14:25:49.919Z,100818.12
2019-05-06T14:28:32.539Z,100812.78
2019-05-06T14:31:09.006Z,100812.78
2019-05-06T14:33:42.721Z,100816.20
2019-05-06T14:36:13.546Z,100815.03
2019-05-06T14:38:44.953Z,100808.66
2019-05-06T14:41:18.968Z,100811.64
2019-05-06T14:43:50.348Z,100816.46
2019-05-06T14:46:22.797Z,100815.03
2019-05-06T14:48:54.502Z,100819.14
2019-05-06T14:51:26.150Z,100816.46
2019-05-06T14:53:58.201Z,100822.64
2019-05-06T14:56:42.735Z,100817.03
2019-05-06T14:59:14.507Z,100823.89
2019-05-06T15:01:46.105Z,100821.88
2019-05-06T15:04:17.324Z,100824.90
2019-05-06T15:06:50.032Z,100816.66
2019-05-06T15:09:22.622Z,100817.80
2019-05-06T15:11:54.115Z,100836.01
2019-05-06T15:14:25.777Z,100851.56
2019-05-06T15:16:57.571Z,100851.88
2019-05-06T15:19:29.419Z,100848.87
2019-05-06T15:22:02.260Z,100847.27
2019-05-06T15:24:34.554Z,100855.98
2019-05-06T15:27:06.120Z,100865.43
2019-05-06T15:29:37.887Z,100876.78
2019-05-06T15:32:29.497Z,100883.91
2019-05-06T15:35:13.344Z,100891.81
2019-05-06T15:37:53.855Z,100889.34
2019-05-06T15:40:32.972Z,100888.64
2019-05-06T15:42:58.517Z,100896.05
2019-05-06T15:45:32.372Z,100895.58
2019-05-06T15:48:03.372Z,100894.81
2019-05-06T15:50:34.378Z,100899.44
2019-05-06T15:53:06.159Z,100892.91
2019-05-06T15:55:38.125Z,100881.77
2019-05-06T15:58:09.426Z,100884.86
2019-05-06T16:00:42.441Z,100884.72
2019-05-06T16:03:14.146Z,100881.63
2019-05-06T16:05:46.310Z,100882.17
2019-05-06T16:08:18.142Z,100878.54
2019-05-06T16:10:52.384Z,100882.13
2019-05-06T16:13:22.752Z,100878.68
2019-05-06T16:15:53.753Z,100886.16
2019-05-06T16:18:25.723Z,100884.20
2019-05-06T16:20:57.632Z,100883.59
2019-05-06T16:23:35.557Z,100891.46
2019-05-06T16:26:06.849Z,100880.52
2019-05-06T16:28:38.760Z,100881.03
2019-05-06T16:31:10.300Z,100879.33
2019-05-06T16:33:43.097Z,100879.35
2019-05-06T16:36:15.058Z,100885.45
2019-05-06T16:38:47.291Z,100886.36
2019-05-06T16:41:19.184Z,100878.50
2019-05-06T16:43:52.377Z,100889.17
2019-05-06T16:46:24.066Z,100886.80
2019-05-06T16:48:55.991Z,100883.05
2019-05-06T16:51:27.949Z,100877.36
2019-05-06T16:53:59.486Z,100888.03
2019-05-06T16:56:44.606Z,100882.41
2019-05-06T16:59:15.088Z,100883.49
2019-05-06T17:01:46.860Z,100881.66
2019-05-06T17:04:41.886Z,100883.11
2019-05-06T17:07:13.708Z,100883.92
2019-05-06T17:09:45.057Z,100882.55
2019-05-06T17:12:16.500Z,100884.02
2019-05-06T17:14:47.955Z,100881.78
2019-05-06T17:17:19.599Z,100880.70
2019-05-06T17:19:52.874Z,100882.95
2019-05-06T17:22:25.132Z,100873.33
2019-05-06T17:24:56.437Z,100870.95
2019-05-06T17:27:28.181Z,100867.59
2019-05-06T17:30:22.596Z,100875.16
2019-05-06T17:32:58.560Z,100876.27
2019-05-06T17:35:32.777Z,100869.11
2019-05-06T17:38:13.733Z,100870.61
2019-05-06T17:40:46.056Z,100868.98
2019-05-06T17:43:17.957Z,100872.58
2019-05-06T17:46:02.541Z,100867.13
2019-05-06T17:49:02.524Z,100866.45
2019-05-06T17:51:37.383Z,100871.27
2019-05-06T17:54:09.183Z,100863.77
2019-05-06T17:56:41.970Z,100865.70
2019-05-06T17:59:13.652Z,100870.48
2019-05-06T18:01:48.212Z,100871.17
2019-05-06T18:04:20.033Z,100870.55
2019-05-06T18:06:52.638Z,100868.70
2019-05-06T18:09:24.692Z,100870.57
2019-05-06T18:11:59.458Z,100871.03
2019-05-06T18:14:32.625Z,100865.95
2019-05-06T18:17:03.982Z,100879.27
2019-05-06T18:19:35.746Z,100876.25
2019-05-06T18:22:07.809Z,100878.00
2019-05-06T18:24:39.978Z,100881.11
2019-05-06T18:27:13.151Z,100877.54
2019-05-06T18:29:44.809Z,100874.38
2019-05-06T18:32:16.498Z,100875.70
2019-05-06T18:34:48.095Z,100875.84
2019-05-06T18:37:19.453Z,100878.87
2019-05-06T18:39:53.089Z,100878.87
2019-05-06T18:42:25.301Z,100872.38
2019-05-06T18:44:56.880Z,100872.38
2019-05-06T18:47:28.919Z,100877.91
2019-05-06T18:50:02.317Z,100881.95
2019-05-06T18:52:35.071Z,100875.48
2019-05-06T18:55:06.992Z,100869.71
2019-05-06T18:57:38.781Z,100877.13
2019-05-06T19:00:10.600Z,100879.91
2019-05-06T19:02:42.401Z,100872.30
2019-05-06T19:05:26.994Z,100877.81
2019-05-06T19:07:57.921Z,100883.08
2019-05-06T19:10:33.200Z,100888.83
2019-05-06T19:13:05.191Z,100893.25
2019-05-06T19:15:37.323Z,100897.59
2019-05-06T19:18:09.348Z,100905.30
2019-05-06T19:20:42.450Z,100909.83
2019-05-06T19:23:14.899Z,100922.48
2019-05-06T19:25:47.018Z,100928.80
2019-05-06T19:28:18.719Z,100937.88
2019-05-06T19:30:51.638Z,100936.86
2019-05-06T19:33:24.128Z,100933.27
2019-05-06T19:35:55.766Z,100939.14
2019-05-06T19:38:28.036Z,100937.22
2019-05-06T19:41:02.030Z,100940.12
2019-05-06T19:43:33.816Z,100933.72
2019-05-06T19:46:05.756Z,100938.81
2019-05-06T19:48:37.735Z,100933.84
2019-05-06T19:51:09.374Z,100929.75
2019-05-06T19:53:42.881Z,100927.90
2019-05-06T19:56:15.482Z,100928.06
2019-05-06T19:58:46.840Z,100939.65
2019-05-06T20:01:18.617Z,100936.48
2019-05-06T20:03:52.659Z,100929.08
2019-05-06T20:06:43.802Z,100925.65
2019-05-06T20:09:24.956Z,100928.53
2019-05-06T20:11:59.931Z,100924.86
2019-05-06T20:14:31.838Z,100927.64
2019-05-06T20:17:03.799Z,100938.08
2019-05-06T20:19:35.624Z,100936.01
2019-05-06T20:22:07.794Z,100939.23
2019-05-06T20:24:39.511Z,100943.53
2019-05-06T20:27:13.305Z,100951.92
2019-05-06T20:29:45.077Z,100947.36
2019-05-06T20:32:16.663Z,100953.81
2019-05-06T20:34:50.117Z,100948.75
2019-05-06T20:37:22.355Z,100944.11
2019-05-06T20:39:54.448Z,100949.02
2019-05-06T20:42:26.678Z,100938.41
2019-05-06T20:44:58.447Z,100930.57
2019-05-06T20:47:32.025Z,100928.08
2019-05-06T20:50:05.396Z,100929.59
2019-05-06T20:52:37.519Z,100926.95
2019-05-06T20:55:15.942Z,100920.67
2019-05-06T20:57:43.937Z,100928.27
2019-05-06T21:00:17.228Z,100923.36
2019-05-06T21:02:49.578Z,100925.98
2019-05-06T21:05:22.767Z,100919.41
2019-05-06T21:07:54.844Z,100925.33
2019-05-06T21:10:27.304Z,100913.41
2019-05-06T21:12:59.204Z,100906.62
2019-05-06T21:15:32.544Z,100906.98
2019-05-06T21:18:04.595Z,100904.78
2019-05-06T21:20:36.673Z,100907.95
2019-05-06T21:23:09.064Z,100904.53
2019-05-06T21:25:42.928Z,100897.94
2019-05-06T21:28:13.610Z,100897.50
2019-05-06T21:30:45.124Z,100892.97
2019-05-06T21:33:17.615Z,100895.73
2019-05-06T21:35:52.083Z,100900.61
2019-05-06T21:38:23.277Z,100899.27
2019-05-06T21:40:55.351Z,100903.03
2019-05-06T21:43:27.960Z,100904.55
2019-05-06T21:45:59.771Z,100901.72
2019-05-06T21:48:33.702Z,100912.11
2019-05-06T21:51:05.673Z,100911.87
2019-05-06T21:53:37.340Z,100910.20
2019-05-06T21:56:09.390Z,100913.45
2019-05-06T21:58:42.827Z,100906.12
2019-05-06T22:01:14.939Z,100912.72
2019-05-06T22:03:46.753Z,100906.70
2019-05-06T22:06:19.146Z,100903.56
2019-05-06T22:08:51.887Z,100900.00
2019-05-06T22:11:24.503Z,100901.62
2019-05-06T22:14:01.412Z,100893.76
2019-05-06T22:16:32.331Z,100901.75
2019-05-06T22:19:03.646Z,100904.46
2019-05-06T22:21:36.163Z,100902.76
2019-05-06T22:24:07.637Z,100900.94
2019-05-06T22:26:39.296Z,100901.44
2019-05-06T22:29:12.249Z,100892.78
2019-05-06T22:31:44.447Z,100890.78
2019-05-06T22:34:16.200Z,100889.27
2019-05-06T22:36:47.830Z,100891.19
2019-05-06T22:39:19.372Z,100882.62
2019-05-06T22:41:52.007Z,100891.94
2019-05-06T22:44:23.437Z,100888.58
2019-05-06T22:46:55.374Z,100885.36
2019-05-06T22:49:27.339Z,100888.45
2019-05-06T22:51:59.560Z,100893.19
2019-05-06T22:54:32.017Z,100883.59
2019-05-06T22:57:05.045Z,100889.30
2019-05-06T22:59:36.907Z,100885.93
2019-05-06T23:02:32.833Z,100890.56
2019-05-06T23:05:04.646Z,100886.47
2019-05-06T23:07:37.594Z,100883.08
2019-05-06T23:10:10.282Z,100884.32
2019-05-06T23:12:43.382Z,100882.52
2019-05-06T23:15:14.933Z,100890.48
2019-05-06T23:17:46.765Z,100893.31
2019-05-06T23:20:18.181Z,100891.86
2019-05-06T23:22:49.779Z,100892.18
2019-05-06T23:25:23.488Z,100886.27
2019-05-06T23:27:55.606Z,100890.94
2019-05-06T23:30:26.871Z,100886.89
2019-05-06T23:32:58.648Z,100889.45
2019-05-06T23:35:30.640Z,100890.33
2019-05-06T23:38:38.012Z,100890.40
2019-05-06T23:41:45.707Z,100888.21
2019-05-06T23:44:54.717Z,100886.92
2019-05-06T23:48:02.622Z,100879.69
2019-05-06T23:51:10.141Z,100889.70
2019-05-06T23:54:18.969Z,100889.66
2019-05-06T23:56:52.114Z,100895.89
2019-05-06T23:59:23.725Z,100897.05
